sensor_id;sensor_type;location;lat;lon;timestamp;pressure;altitude;pressure_sealevel;temperature;humidity
71151;BME280;59071;42.138;24.768;2023-12-20T00:00:48;100092.53;;;2.20;89.20
71151;BME280;59071;42.138;24.768;2023-12-20T00:03:13;100094.06;;;2.12;89.05
71151;BME280;59071;42.138;24.768;2023-12-20T00:05:38;100091.72;;;2.19;91.06
71151;BME280;59071;42.138;24.768;2023-12-20T00:08:06;100092.69;;;2.18;91.12
71151;BME280;59071;42.138;24.768;2023-12-20T00:10:31;100086.69;;;2.83;88.33
71151;BME280;59071;42.138;24.768;2023-12-20T00:12:56;100081.97;;;2.49;87.63
71151;BME280;59071;42.138;24.768;2023-12-20T00:15:22;100082.88;;;2.67;88.17
71151;BME280;59071;42.138;24.768;2023-12-20T00:17:47;100079.75;;;2.82;86.90
71151;BME280;59071;42.138;24.768;2023-12-20T00:20:13;100077.31;;;2.80;85.90
71151;BME280;59071;42.138;24.768;2023-12-20T00:22:38;100085.56;;;2.85;86.22
71151;BME280;59071;42.138;24.768;2023-12-20T00:25:04;100088.63;;;3.36;82.68
71151;BME280;59071;42.138;24.768;2023-12-20T00:27:29;100077.22;;;3.45;79.67
71151;BME280;59071;42.138;24.768;2023-12-20T00:29:55;100074.91;;;3.60;77.99
71151;BME280;59071;42.138;24.768;2023-12-20T00:32:20;100070.38;;;3.52;78.96
71151;BME280;59071;42.138;24.768;2023-12-20T00:34:45;100065.69;;;3.46;77.94
71151;BME280;59071;42.138;24.768;2023-12-20T00:37:11;100055.84;;;3.12;79.40
71151;BME280;59071;42.138;24.768;2023-12-20T00:39:36;100053.44;;;3.19;80.29
71151;BME280;59071;42.138;24.768;2023-12-20T00:42:01;100046.47;;;3.28;81.60
71151;BME280;59071;42.138;24.768;2023-12-20T00:44:27;100047.56;;;3.07;81.61
71151;BME280;59071;42.138;24.768;2023-12-20T00:46:52;100054.06;;;2.48;81.71
71151;BME280;59071;42.138;24.768;2023-12-20T00:49:17;100043.88;;;2.25;85.06
71151;BME280;59071;42.138;24.768;2023-12-20T00:51:43;100035.00;;;3.19;85.09
71151;BME280;59071;42.138;24.768;2023-12-20T00:54:08;100038.41;;;3.83;84.10
71151;BME280;59071;42.138;24.768;2023-12-20T00:56:35;100033.63;;;4.31;82.24
71151;BME280;59071;42.138;24.768;2023-12-20T00:59:00;100024.25;;;4.63;85.16
71151;BME280;59071;42.138;24.768;2023-12-20T01:01:25;100024.50;;;3.55;84.47
71151;BME280;59071;42.138;24.768;2023-12-20T01:03:51;100029.34;;;2.96;86.76
71151;BME280;59071;42.138;24.768;2023-12-20T01:06:17;100026.84;;;2.94;85.67
71151;BME280;59071;42.138;24.768;2023-12-20T01:08:42;100015.53;;;2.94;85.59
71151;BME280;59071;42.138;24.768;2023-12-20T01:11:07;100019.91;;;3.57;84.97
71151;BME280;59071;42.138;24.768;2023-12-20T01:13:33;100017.13;;;3.59;85.03
71151;BME280;59071;42.138;24.768;2023-12-20T01:15:58;100013.50;;;3.06;86.63
71151;BME280;59071;42.138;24.768;2023-12-20T01:18:24;100004.84;;;3.85;85.37
71151;BME280;59071;42.138;24.768;2023-12-20T01:20:49;100010.88;;;3.60;85.54
71151;BME280;59071;42.138;24.768;2023-12-20T01:23:14;99996.56;;;3.18;83.21
71151;BME280;59071;42.138;24.768;2023-12-20T01:25:40;99989.25;;;3.48;84.60
71151;BME280;59071;42.138;24.768;2023-12-20T01:28:05;99980.16;;;3.42;86.40
71151;BME280;59071;42.138;24.768;2023-12-20T01:30:31;99992.41;;;2.98;85.79
71151;BME280;59071;42.138;24.768;2023-12-20T01:32:56;99991.31;;;2.90;88.05
71151;BME280;59071;42.138;24.768;2023-12-20T01:35:21;99995.34;;;3.48;87.17
71151;BME280;59071;42.138;24.768;2023-12-20T01:37:47;99977.97;;;3.02;87.27
71151;BME280;59071;42.138;24.768;2023-12-20T01:40:12;99985.97;;;2.54;88.58
71151;BME280;59071;42.138;24.768;2023-12-20T01:42:37;99986.53;;;3.58;85.94
71151;BME280;59071;42.138;24.768;2023-12-20T01:45:03;99987.88;;;2.90;87.22
71151;BME280;59071;42.138;24.768;2023-12-20T01:47:29;99980.53;;;2.93;86.76
71151;BME280;59071;42.138;24.768;2023-12-20T01:49:54;99984.03;;;3.74;85.15
71151;BME280;59071;42.138;24.768;2023-12-20T01:52:22;99974.97;;;3.15;86.11
71151;BME280;59071;42.138;24.768;2023-12-20T01:54:48;99971.34;;;2.52;86.08
71151;BME280;59071;42.138;24.768;2023-12-20T01:57:14;99966.38;;;2.21;88.69
71151;BME280;59071;42.138;24.768;2023-12-20T01:59:40;99959.56;;;3.38;86.26
71151;BME280;59071;42.138;24.768;2023-12-20T02:02:07;99962.88;;;2.58;89.17
71151;BME280;59071;42.138;24.768;2023-12-20T02:04:33;99951.19;;;2.05;88.47
71151;BME280;59071;42.138;24.768;2023-12-20T02:06:59;99949.72;;;2.86;88.63
71151;BME280;59071;42.138;24.768;2023-12-20T02:09:24;99949.63;;;2.78;88.83
71151;BME280;59071;42.138;24.768;2023-12-20T02:11:50;99942.22;;;2.35;87.85
71151;BME280;59071;42.138;24.768;2023-12-20T02:14:15;99936.78;;;2.92;86.47
71151;BME280;59071;42.138;24.768;2023-12-20T02:16:41;99938.38;;;3.03;86.29
71151;BME280;59071;42.138;24.768;2023-12-20T02:19:15;99941.31;;;2.54;86.00
71151;BME280;59071;42.138;24.768;2023-12-20T02:21:40;99938.09;;;2.33;87.32
71151;BME280;59071;42.138;24.768;2023-12-20T02:24:06;99934.97;;;2.93;85.90
71151;BME280;59071;42.138;24.768;2023-12-20T02:26:34;99941.81;;;2.40;88.08
71151;BME280;59071;42.138;24.768;2023-12-20T02:29:01;99928.19;;;1.89;85.91
71151;BME280;59071;42.138;24.768;2023-12-20T02:31:26;99913.88;;;2.67;86.91
71151;BME280;59071;42.138;24.768;2023-12-20T02:33:51;99931.44;;;2.39;89.25
71151;BME280;59071;42.138;24.768;2023-12-20T02:36:17;99922.25;;;1.87;86.53
71151;BME280;59071;42.138;24.768;2023-12-20T02:38:42;99922.03;;;2.46;87.38
71151;BME280;59071;42.138;24.768;2023-12-20T02:41:08;99916.75;;;2.46;87.93
71151;BME280;59071;42.138;24.768;2023-12-20T02:43:33;99925.97;;;1.94;87.11
71151;BME280;59071;42.138;24.768;2023-12-20T02:45:58;99922.66;;;1.83;88.68
71151;BME280;59071;42.138;24.768;2023-12-20T02:48:24;99919.50;;;2.72;86.58
71151;BME280;59071;42.138;24.768;2023-12-20T02:50:49;99906.97;;;2.10;89.01
71151;BME280;59071;42.138;24.768;2023-12-20T02:53:14;99905.22;;;1.44;87.12
71151;BME280;59071;42.138;24.768;2023-12-20T02:55:40;99894.91;;;1.13;89.49
71151;BME280;59071;42.138;24.768;2023-12-20T02:58:05;99897.63;;;1.51;93.69
71151;BME280;59071;42.138;24.768;2023-12-20T03:00:31;99894.28;;;1.59;93.32
71151;BME280;59071;42.138;24.768;2023-12-20T03:02:56;99892.94;;;1.35;92.14
71151;BME280;59071;42.138;24.768;2023-12-20T03:05:21;99899.47;;;1.02;89.76
71151;BME280;59071;42.138;24.768;2023-12-20T03:07:47;99901.69;;;1.26;90.50
71151;BME280;59071;42.138;24.768;2023-12-20T03:10:12;99897.59;;;2.08;89.75
71151;BME280;59071;42.138;24.768;2023-12-20T03:12:38;99895.78;;;1.71;91.23
71151;BME280;59071;42.138;24.768;2023-12-20T03:15:03;99891.19;;;1.26;88.31
71151;BME280;59071;42.138;24.768;2023-12-20T03:17:29;99895.56;;;2.29;89.00
71151;BME280;59071;42.138;24.768;2023-12-20T03:19:54;99890.22;;;1.84;90.56
71151;BME280;59071;42.138;24.768;2023-12-20T03:22:19;99888.84;;;1.13;86.92
71151;BME280;59071;42.138;24.768;2023-12-20T03:24:45;99895.03;;;1.22;90.97
71151;BME280;59071;42.138;24.768;2023-12-20T03:27:10;99880.91;;;1.99;89.83
71151;BME280;59071;42.138;24.768;2023-12-20T03:29:35;99888.28;;;1.86;88.78
71151;BME280;59071;42.138;24.768;2023-12-20T03:32:01;99876.69;;;1.02;90.26
71151;BME280;59071;42.138;24.768;2023-12-20T03:34:26;99886.28;;;1.98;90.78
71151;BME280;59071;42.138;24.768;2023-12-20T03:36:52;99882.34;;;1.84;91.50
71151;BME280;59071;42.138;24.768;2023-12-20T03:39:17;99879.25;;;1.61;86.67
71151;BME280;59071;42.138;24.768;2023-12-20T03:41:42;99876.13;;;1.85;89.10
71151;BME280;59071;42.138;24.768;2023-12-20T03:44:08;99870.25;;;2.28;87.70
71151;BME280;59071;42.138;24.768;2023-12-20T03:46:33;99868.03;;;2.06;87.30
71151;BME280;59071;42.138;24.768;2023-12-20T03:48:58;99868.44;;;1.64;86.75
71151;BME280;59071;42.138;24.768;2023-12-20T03:51:24;99876.03;;;2.60;86.21
71151;BME280;59071;42.138;24.768;2023-12-20T03:53:49;99866.69;;;2.47;86.39
71151;BME280;59071;42.138;24.768;2023-12-20T03:56:14;99878.63;;;1.76;82.80
71151;BME280;59071;42.138;24.768;2023-12-20T03:58:40;99877.94;;;2.12;85.47
71151;BME280;59071;42.138;24.768;2023-12-20T04:01:11;99871.63;;;2.32;86.67
71151;BME280;59071;42.138;24.768;2023-12-20T04:03:39;99876.06;;;2.04;83.01
71151;BME280;59071;42.138;24.768;2023-12-20T04:06:05;99886.09;;;1.81;83.74
71151;BME280;59071;42.138;24.768;2023-12-20T04:08:31;99882.84;;;2.52;84.37
71151;BME280;59071;42.138;24.768;2023-12-20T04:10:56;99872.84;;;2.38;82.30
71151;BME280;59071;42.138;24.768;2023-12-20T04:13:22;99861.16;;;1.58;80.35
71151;BME280;59071;42.138;24.768;2023-12-20T04:15:47;99854.50;;;2.01;84.21
71151;BME280;59071;42.138;24.768;2023-12-20T04:18:15;99869.22;;;2.39;85.04
71151;BME280;59071;42.138;24.768;2023-12-20T04:20:40;99870.31;;;2.19;79.85
71151;BME280;59071;42.138;24.768;2023-12-20T04:23:05;99862.06;;;1.76;76.46
71151;BME280;59071;42.138;24.768;2023-12-20T04:25:31;99865.06;;;2.19;81.79
71151;BME280;59071;42.138;24.768;2023-12-20T04:27:56;99866.31;;;2.14;85.14
71151;BME280;59071;42.138;24.768;2023-12-20T04:30:21;99855.97;;;1.85;77.28
71151;BME280;59071;42.138;24.768;2023-12-20T04:32:47;99867.59;;;1.73;82.34
71151;BME280;59071;42.138;24.768;2023-12-20T04:35:12;99858.03;;;2.09;85.87
71151;BME280;59071;42.138;24.768;2023-12-20T04:37:37;99850.38;;;2.26;79.89
71151;BME280;59071;42.138;24.768;2023-12-20T04:40:03;99855.19;;;1.65;78.53
71151;BME280;59071;42.138;24.768;2023-12-20T04:42:30;99851.00;;;2.10;82.19
71151;BME280;59071;42.138;24.768;2023-12-20T04:44:55;99847.09;;;2.42;83.40
71151;BME280;59071;42.138;24.768;2023-12-20T04:47:21;99844.47;;;1.49;76.08
71151;BME280;59071;42.138;24.768;2023-12-20T04:49:47;99840.13;;;1.10;81.92
71151;BME280;59071;42.138;24.768;2023-12-20T04:52:12;99833.66;;;1.99;82.37
71151;BME280;59071;42.138;24.768;2023-12-20T04:54:37;99836.94;;;1.73;84.09
71151;BME280;59071;42.138;24.768;2023-12-20T04:57:03;99842.44;;;1.33;77.01
71151;BME280;59071;42.138;24.768;2023-12-20T04:59:28;99835.94;;;1.37;81.75
71151;BME280;59071;42.138;24.768;2023-12-20T05:01:54;99847.25;;;2.12;82.33
71151;BME280;59071;42.138;24.768;2023-12-20T05:04:19;99834.66;;;1.88;77.50
71151;BME280;59071;42.138;24.768;2023-12-20T05:06:45;99836.63;;;1.49;76.28
71151;BME280;59071;42.138;24.768;2023-12-20T05:09:10;99829.91;;;1.74;81.81
71151;BME280;59071;42.138;24.768;2023-12-20T05:11:36;99828.81;;;2.04;84.38
71151;BME280;59071;42.138;24.768;2023-12-20T05:14:01;99829.50;;;1.69;77.22
71151;BME280;59071;42.138;24.768;2023-12-20T05:16:26;99830.09;;;0.96;78.70
71151;BME280;59071;42.138;24.768;2023-12-20T05:18:52;99820.53;;;1.62;82.82
71151;BME280;59071;42.138;24.768;2023-12-20T05:21:18;99825.03;;;2.34;82.65
71151;BME280;59071;42.138;24.768;2023-12-20T05:23:43;99809.34;;;2.43;75.69
71151;BME280;59071;42.138;24.768;2023-12-20T05:26:08;99810.50;;;1.57;74.13
71151;BME280;59071;42.138;24.768;2023-12-20T05:28:34;99822.34;;;3.50;100.00
71151;BME280;59071;42.138;24.768;2023-12-20T05:30:59;99824.22;;;4.68;94.97
71151;BME280;59071;42.138;24.768;2023-12-20T05:33:24;99817.97;;;4.69;87.95
71151;BME280;59071;42.138;24.768;2023-12-20T05:35:50;99814.06;;;4.14;82.40
71151;BME280;59071;42.138;24.768;2023-12-20T05:38:15;99804.81;;;3.67;80.39
71151;BME280;59071;42.138;24.768;2023-12-20T05:40:40;99805.59;;;3.60;80.13
71151;BME280;59071;42.138;24.768;2023-12-20T05:43:06;99803.69;;;3.36;80.96
71151;BME280;59071;42.138;24.768;2023-12-20T05:45:31;99791.75;;;3.23;80.13
71151;BME280;59071;42.138;24.768;2023-12-20T05:47:57;99799.59;;;3.15;79.42
71151;BME280;59071;42.138;24.768;2023-12-20T05:50:22;99794.16;;;2.90;80.19
71151;BME280;59071;42.138;24.768;2023-12-20T05:52:47;99787.13;;;2.73;80.85
71151;BME280;59071;42.138;24.768;2023-12-20T05:55:13;99790.47;;;2.83;81.17
71151;BME280;59071;42.138;24.768;2023-12-20T05:57:38;99797.78;;;2.35;81.41
71151;BME280;59071;42.138;24.768;2023-12-20T06:00:04;99790.72;;;2.18;82.31
71151;BME280;59071;42.138;24.768;2023-12-20T06:02:30;99785.91;;;2.13;83.43
71151;BME280;59071;42.138;24.768;2023-12-20T06:04:55;99777.88;;;2.51;81.40
71151;BME280;59071;42.138;24.768;2023-12-20T06:07:20;99781.16;;;2.89;80.36
71151;BME280;59071;42.138;24.768;2023-12-20T06:09:46;99762.25;;;2.85;81.31
71151;BME280;59071;42.138;24.768;2023-12-20T06:12:11;99786.63;;;3.22;82.10
71151;BME280;59071;42.138;24.768;2023-12-20T06:14:37;99779.91;;;3.45;80.65
71151;BME280;59071;42.138;24.768;2023-12-20T06:17:02;99781.75;;;3.53;80.63
71151;BME280;59071;42.138;24.768;2023-12-20T06:19:28;99786.56;;;3.66;79.83
71151;BME280;59071;42.138;24.768;2023-12-20T06:21:53;99792.16;;;3.71;79.80
71151;BME280;59071;42.138;24.768;2023-12-20T06:24:19;99790.56;;;3.78;80.13
71151;BME280;59071;42.138;24.768;2023-12-20T06:26:44;99774.69;;;3.96;79.33
71151;BME280;59071;42.138;24.768;2023-12-20T06:29:09;99787.94;;;4.37;78.35
71151;BME280;59071;42.138;24.768;2023-12-20T06:31:35;99778.56;;;4.35;77.26
71151;BME280;59071;42.138;24.768;2023-12-20T06:34:00;99773.44;;;4.41;77.73
71151;BME280;59071;42.138;24.768;2023-12-20T06:36:26;99762.94;;;4.74;76.99
71151;BME280;59071;42.138;24.768;2023-12-20T06:38:52;99774.63;;;4.96;76.51
71151;BME280;59071;42.138;24.768;2023-12-20T06:41:17;99781.53;;;4.64;77.77
71151;BME280;59071;42.138;24.768;2023-12-20T06:43:43;99785.19;;;4.88;77.47
71151;BME280;59071;42.138;24.768;2023-12-20T06:46:09;99783.34;;;4.97;77.92
71151;BME280;59071;42.138;24.768;2023-12-20T06:48:35;99775.78;;;5.02;78.37
71151;BME280;59071;42.138;24.768;2023-12-20T06:51:01;99783.41;;;5.61;76.20
71151;BME280;59071;42.138;24.768;2023-12-20T06:53:29;99771.31;;;5.02;77.42
71151;BME280;59071;42.138;24.768;2023-12-20T06:55:54;99770.88;;;4.74;79.14
71151;BME280;59071;42.138;24.768;2023-12-20T06:58:21;99767.53;;;4.88;79.89
71151;BME280;59071;42.138;24.768;2023-12-20T07:00:47;99765.75;;;4.73;80.50
71151;BME280;59071;42.138;24.768;2023-12-20T07:03:12;99774.97;;;5.01;80.21
71151;BME280;59071;42.138;24.768;2023-12-20T07:05:37;99774.06;;;5.42;78.88
71151;BME280;59071;42.138;24.768;2023-12-20T07:08:03;99763.47;;;5.90;75.66
71151;BME280;59071;42.138;24.768;2023-12-20T07:10:28;99761.66;;;5.98;74.45
71151;BME280;59071;42.138;24.768;2023-12-20T07:12:54;99759.88;;;6.45;73.35
71151;BME280;59071;42.138;24.768;2023-12-20T07:15:21;99754.25;;;6.25;73.16
71151;BME280;59071;42.138;24.768;2023-12-20T07:17:46;99758.50;;;6.49;72.08
71151;BME280;59071;42.138;24.768;2023-12-20T07:20:12;99767.81;;;6.45;73.56
71151;BME280;59071;42.138;24.768;2023-12-20T07:22:37;99742.25;;;6.98;71.20
71151;BME280;59071;42.138;24.768;2023-12-20T07:25:03;99752.44;;;7.54;69.21
71151;BME280;59071;42.138;24.768;2023-12-20T07:27:28;99746.31;;;8.63;66.49
71151;BME280;59071;42.138;24.768;2023-12-20T07:29:54;99736.41;;;8.50;64.47
71151;BME280;59071;42.138;24.768;2023-12-20T07:32:19;99741.13;;;9.33;62.72
71151;BME280;59071;42.138;24.768;2023-12-20T07:34:45;99713.63;;;10.02;59.65
71151;BME280;59071;42.138;24.768;2023-12-20T07:37:10;99743.22;;;11.07;56.26
71151;BME280;59071;42.138;24.768;2023-12-20T07:39:37;99738.38;;;11.63;54.25
71151;BME280;59071;42.138;24.768;2023-12-20T07:42:03;99741.16;;;11.95;53.36
71151;BME280;59071;42.138;24.768;2023-12-20T07:44:28;99747.50;;;11.87;53.26
71151;BME280;59071;42.138;24.768;2023-12-20T07:46:53;99739.94;;;12.29;52.07
71151;BME280;59071;42.138;24.768;2023-12-20T07:49:19;99743.41;;;12.61;51.11
71151;BME280;59071;42.138;24.768;2023-12-20T07:51:44;99728.72;;;13.02;49.61
71151;BME280;59071;42.138;24.768;2023-12-20T07:54:10;99731.75;;;13.49;48.04
71151;BME280;59071;42.138;24.768;2023-12-20T07:56:35;99732.34;;;12.58;48.76
71151;BME280;59071;42.138;24.768;2023-12-20T07:59:01;99728.88;;;11.08;52.88
71151;BME280;59071;42.138;24.768;2023-12-20T08:01:26;99716.19;;;10.50;54.85
71151;BME280;59071;42.138;24.768;2023-12-20T08:03:52;99704.34;;;10.66;54.89
71151;BME280;59071;42.138;24.768;2023-12-20T08:06:17;99716.59;;;10.41;55.48
71151;BME280;59071;42.138;24.768;2023-12-20T08:08:43;99725.31;;;11.41;52.10
71151;BME280;59071;42.138;24.768;2023-12-20T08:11:08;99719.06;;;10.82;53.06
71151;BME280;59071;42.138;24.768;2023-12-20T08:13:34;99707.56;;;10.35;53.63
71151;BME280;59071;42.138;24.768;2023-12-20T08:15:59;99715.19;;;9.90;55.75
71151;BME280;59071;42.138;24.768;2023-12-20T08:18:25;99707.53;;;10.28;55.45
71151;BME280;59071;42.138;24.768;2023-12-20T08:20:50;99708.81;;;10.46;54.13
71151;BME280;59071;42.138;24.768;2023-12-20T08:23:18;99709.97;;;10.30;54.81
71151;BME280;59071;42.138;24.768;2023-12-20T08:25:43;99704.63;;;10.10;54.78
71151;BME280;59071;42.138;24.768;2023-12-20T08:28:09;99699.75;;;10.27;55.21
71151;BME280;59071;42.138;24.768;2023-12-20T08:30:34;99696.34;;;10.80;54.56
71151;BME280;59071;42.138;24.768;2023-12-20T08:33:00;99691.34;;;11.10;52.07
71151;BME280;59071;42.138;24.768;2023-12-20T08:35:25;99689.78;;;10.49;53.87
71151;BME280;59071;42.138;24.768;2023-12-20T08:37:51;99687.72;;;10.37;53.77
71151;BME280;59071;42.138;24.768;2023-12-20T08:40:16;99688.28;;;10.13;56.07
71151;BME280;59071;42.138;24.768;2023-12-20T08:42:41;99677.63;;;11.13;54.35
71151;BME280;59071;42.138;24.768;2023-12-20T08:45:07;99677.97;;;11.43;52.83
71151;BME280;59071;42.138;24.768;2023-12-20T08:47:33;99668.03;;;11.12;52.99
71151;BME280;59071;42.138;24.768;2023-12-20T08:49:58;99658.88;;;10.74;52.67
71151;BME280;59071;42.138;24.768;2023-12-20T08:52:25;99652.72;;;10.81;53.59
71151;BME280;59071;42.138;24.768;2023-12-20T08:54:52;99656.50;;;11.31;51.89
71151;BME280;59071;42.138;24.768;2023-12-20T08:57:22;99641.66;;;10.77;52.42
71151;BME280;59071;42.138;24.768;2023-12-20T08:59:51;99630.81;;;10.12;54.77
71151;BME280;59071;42.138;24.768;2023-12-20T09:02:17;99634.19;;;9.66;57.02
71151;BME280;59071;42.138;24.768;2023-12-20T09:04:42;99636.88;;;9.86;57.40
71151;BME280;59071;42.138;24.768;2023-12-20T09:07:27;99629.41;;;10.43;55.44
71151;BME280;59071;42.138;24.768;2023-12-20T09:09:54;99623.41;;;9.81;56.73
71151;BME280;59071;42.138;24.768;2023-12-20T09:12:20;99611.31;;;9.71;56.69
71151;BME280;59071;42.138;24.768;2023-12-20T09:14:49;99606.19;;;9.70;56.62
71151;BME280;59071;42.138;24.768;2023-12-20T09:17:15;99596.81;;;9.81;56.79
71151;BME280;59071;42.138;24.768;2023-12-20T09:19:42;99606.47;;;10.28;55.81
71151;BME280;59071;42.138;24.768;2023-12-20T09:22:09;99585.41;;;10.27;56.52
71151;BME280;59071;42.138;24.768;2023-12-20T09:24:34;99591.53;;;10.21;56.00
71151;BME280;59071;42.138;24.768;2023-12-20T09:26:59;99585.78;;;10.24;55.13
71151;BME280;59071;42.138;24.768;2023-12-20T09:29:25;99585.00;;;10.43;55.65
71151;BME280;59071;42.138;24.768;2023-12-20T09:31:50;99589.34;;;11.09;53.89
71151;BME280;59071;42.138;24.768;2023-12-20T09:34:16;99581.47;;;10.69;54.89
71151;BME280;59071;42.138;24.768;2023-12-20T09:36:42;99581.03;;;10.79;53.58
71151;BME280;59071;42.138;24.768;2023-12-20T09:39:13;99561.66;;;10.25;55.54
71151;BME280;59071;42.138;24.768;2023-12-20T09:41:43;99556.53;;;10.57;56.33
71151;BME280;59071;42.138;24.768;2023-12-20T09:44:12;99553.53;;;11.44;54.09
71151;BME280;59071;42.138;24.768;2023-12-20T09:46:43;99555.25;;;11.31;52.09
71151;BME280;59071;42.138;24.768;2023-12-20T09:49:08;99540.41;;;11.04;53.82
71151;BME280;59071;42.138;24.768;2023-12-20T09:51:34;99534.06;;;11.05;52.56
71151;BME280;59071;42.138;24.768;2023-12-20T09:54:03;99524.34;;;10.79;53.36
71151;BME280;59071;42.138;24.768;2023-12-20T09:56:29;99531.34;;;11.57;52.34
71151;BME280;59071;42.138;24.768;2023-12-20T09:58:55;99529.16;;;11.40;51.48
71151;BME280;59071;42.138;24.768;2023-12-20T10:01:21;99520.19;;;11.66;51.96
71151;BME280;59071;42.138;24.768;2023-12-20T10:03:46;99515.50;;;12.19;50.33
71151;BME280;59071;42.138;24.768;2023-12-20T10:06:12;99514.38;;;11.76;50.47
71151;BME280;59071;42.138;24.768;2023-12-20T10:08:38;99503.50;;;11.46;51.95
71151;BME280;59071;42.138;24.768;2023-12-20T10:11:05;99492.06;;;12.02;50.97
71151;BME280;59071;42.138;24.768;2023-12-20T10:13:30;99497.53;;;12.51;49.47
71151;BME280;59071;42.138;24.768;2023-12-20T10:15:56;99491.56;;;13.04;48.52
71151;BME280;59071;42.138;24.768;2023-12-20T10:18:22;99490.00;;;13.57;47.79
71151;BME280;59071;42.138;24.768;2023-12-20T10:20:48;99490.66;;;13.95;47.03
71151;BME280;59071;42.138;24.768;2023-12-20T10:23:15;99482.41;;;13.96;44.94
71151;BME280;59071;42.138;24.768;2023-12-20T10:25:41;99475.88;;;13.92;45.13
71151;BME280;59071;42.138;24.768;2023-12-20T10:28:16;99480.16;;;14.64;42.91
71151;BME280;59071;42.138;24.768;2023-12-20T10:30:48;99477.00;;;14.55;44.30
71151;BME280;59071;42.138;24.768;2023-12-20T10:33:23;99459.63;;;14.70;42.47
71151;BME280;59071;42.138;24.768;2023-12-20T10:35:50;99460.94;;;14.55;42.65
71151;BME280;59071;42.138;24.768;2023-12-20T10:38:15;99455.38;;;14.57;42.23
71151;BME280;59071;42.138;24.768;2023-12-20T10:40:40;99461.28;;;14.71;42.78
71151;BME280;59071;42.138;24.768;2023-12-20T10:43:06;99448.91;;;15.10;41.56
71151;BME280;59071;42.138;24.768;2023-12-20T10:45:33;99434.81;;;15.32;40.85
71151;BME280;59071;42.138;24.768;2023-12-20T10:47:59;99425.97;;;15.31;40.31
71151;BME280;59071;42.138;24.768;2023-12-20T10:50:27;99427.25;;;15.29;40.65
71151;BME280;59071;42.138;24.768;2023-12-20T10:52:54;99418.88;;;15.42;40.44
71151;BME280;59071;42.138;24.768;2023-12-20T10:55:21;99410.84;;;15.42;39.25
71151;BME280;59071;42.138;24.768;2023-12-20T10:57:49;99417.28;;;15.41;40.44
71151;BME280;59071;42.138;24.768;2023-12-20T11:00:17;99412.63;;;15.19;41.37
71151;BME280;59071;42.138;24.768;2023-12-20T11:02:43;99404.28;;;15.33;39.63
71151;BME280;59071;42.138;24.768;2023-12-20T11:07:47;99396.41;;;15.77;40.35
71151;BME280;59071;42.138;24.768;2023-12-20T11:10:21;99386.63;;;15.88;40.50
71151;BME280;59071;42.138;24.768;2023-12-20T11:12:58;99378.31;;;15.72;40.72
71151;BME280;59071;42.138;24.768;2023-12-20T11:15:27;99382.69;;;15.73;38.92
71151;BME280;59071;42.138;24.768;2023-12-20T11:17:58;99374.94;;;15.26;39.60
71151;BME280;59071;42.138;24.768;2023-12-20T11:20:37;99381.53;;;15.35;39.72
71151;BME280;59071;42.138;24.768;2023-12-20T11:23:03;99375.84;;;15.49;39.79
71151;BME280;59071;42.138;24.768;2023-12-20T11:25:28;99360.81;;;15.14;40.22
71151;BME280;59071;42.138;24.768;2023-12-20T11:28:08;99363.97;;;15.28;40.42
71151;BME280;59071;42.138;24.768;2023-12-20T11:30:56;99354.56;;;15.08;40.93
71151;BME280;59071;42.138;24.768;2023-12-20T11:33:26;99353.97;;;15.40;40.52
71151;BME280;59071;42.138;24.768;2023-12-20T11:35:57;99353.81;;;15.63;40.72
71151;BME280;59071;42.138;24.768;2023-12-20T11:38:25;99342.75;;;15.60;40.08
71151;BME280;59071;42.138;24.768;2023-12-20T11:40:53;99341.69;;;15.78;38.81
71151;BME280;59071;42.138;24.768;2023-12-20T11:43:32;99338.91;;;15.73;39.28
71151;BME280;59071;42.138;24.768;2023-12-20T11:46:07;99333.84;;;15.20;40.57
71151;BME280;59071;42.138;24.768;2023-12-20T11:48:39;99329.94;;;15.28;39.45
71151;BME280;59071;42.138;24.768;2023-12-20T11:51:12;99323.84;;;14.99;39.89
71151;BME280;59071;42.138;24.768;2023-12-20T11:53:41;99322.09;;;14.47;41.46
71151;BME280;59071;42.138;24.768;2023-12-20T11:56:10;99313.44;;;14.85;40.90
71151;BME280;59071;42.138;24.768;2023-12-20T11:58:35;99304.28;;;14.98;41.76
71151;BME280;59071;42.138;24.768;2023-12-20T12:01:01;99296.22;;;15.32;40.43
71151;BME280;59071;42.138;24.768;2023-12-20T12:03:30;99298.34;;;14.96;42.05
71151;BME280;59071;42.138;24.768;2023-12-20T12:05:55;99293.50;;;15.10;42.07
71151;BME280;59071;42.138;24.768;2023-12-20T12:08:21;99288.75;;;14.83;42.15
71151;BME280;59071;42.138;24.768;2023-12-20T12:10:46;99284.69;;;14.98;41.56
71151;BME280;59071;42.138;24.768;2023-12-20T12:13:12;99286.66;;;15.19;41.31
71151;BME280;59071;42.138;24.768;2023-12-20T12:15:39;99276.84;;;14.91;43.35
71151;BME280;59071;42.138;24.768;2023-12-20T12:18:05;99273.50;;;14.84;43.64
71151;BME280;59071;42.138;24.768;2023-12-20T12:20:30;99277.56;;;15.03;43.90
71151;BME280;59071;42.138;24.768;2023-12-20T12:22:59;99266.03;;;14.86;45.17
71151;BME280;59071;42.138;24.768;2023-12-20T12:25:26;99264.44;;;14.27;46.70
71151;BME280;59071;42.138;24.768;2023-12-20T12:27:52;99264.88;;;14.36;46.59
71151;BME280;59071;42.138;24.768;2023-12-20T12:30:17;99274.38;;;14.15;47.43
71151;BME280;59071;42.138;24.768;2023-12-20T12:32:46;99267.44;;;14.02;47.94
71151;BME280;59071;42.138;24.768;2023-12-20T12:35:11;99264.66;;;13.97;47.66
71151;BME280;59071;42.138;24.768;2023-12-20T12:37:40;99261.69;;;13.82;47.93
71151;BME280;59071;42.138;24.768;2023-12-20T12:40:10;99254.88;;;14.03;47.61
71151;BME280;59071;42.138;24.768;2023-12-20T12:42:37;99244.16;;;14.03;47.70
71151;BME280;59071;42.138;24.768;2023-12-20T12:45:03;99255.53;;;13.81;47.77
71151;BME280;59071;42.138;24.768;2023-12-20T12:47:29;99251.34;;;14.14;47.71
71151;BME280;59071;42.138;24.768;2023-12-20T12:49:55;99243.03;;;14.27;46.87
71151;BME280;59071;42.138;24.768;2023-12-20T12:52:20;99247.56;;;14.27;47.43